Time;durP1;ratioP1;P1;durP2;ratioP2;P2;SDS_P1;SDS_P2;PMS_P1;PMS_P2;Temp;Humidity;BMP_temperature;BMP_pressure;BME280_temperature;BME280_humidity;BME280_pressure;Samples;Min_cycle;Max_cycle;Signal;HPM_P1;HPM_P2
2023/09/01 00:01:00;;;;;;;6.60;2.95;;;;;;;9.85;100.00;98270.88;4173099;28;20150;-73
2023/09/01 00:03:01;;;;;;;5.40;2.95;;;;;;;9.82;100.00;98279.91;4172275;28;20072;-73
2023/09/01 00:05:02;;;;;;;3.20;2.58;;;;;;;9.76;100.00;98272.31;4172927;28;20540;-73
2023/09/01 00:07:03;;;;;;;5.23;2.90;;;;;;;9.76;100.00;98275.91;4171679;28;20063;-73
2023/09/01 00:09:04;;;;;;;5.00;2.70;;;;;;;9.77;100.00;98274.72;4172692;28;20041;-73
2023/09/01 00:11:04;;;;;;;4.88;2.70;;;;;;;9.81;100.00;98280.28;4172781;28;20512;-73
2023/09/01 00:13:05;;;;;;;4.53;2.60;;;;;;;9.85;100.00;98278.38;4171450;28;20051;-73
2023/09/01 00:15:06;;;;;;;3.58;2.33;;;;;;;9.88;100.00;98274.03;4172735;28;20049;-73
2023/09/01 00:17:06;;;;;;;3.50;2.30;;;;;;;9.90;100.00;98277.22;4173106;28;20147;-73
2023/09/01 00:19:06;;;;;;;3.45;2.55;;;;;;;9.93;100.00;98271.75;4172647;28;20491;-73
2023/09/01 00:21:07;;;;;;;6.85;2.60;;;;;;;9.96;100.00;98276.50;4172769;28;20394;-73
2023/09/01 00:23:07;;;;;;;8.73;2.90;;;;;;;9.90;100.00;98274.44;4171755;28;20055;-73
2023/09/01 00:25:08;;;;;;;3.35;2.58;;;;;;;9.84;100.00;98269.25;4172319;28;20485;-73
2023/09/01 00:27:08;;;;;;;4.57;2.22;;;;;;;9.82;100.00;98281.88;4172602;28;20044;-73
2023/09/01 00:29:08;;;;;;;4.18;2.90;;;;;;;9.72;100.00;98271.50;4172400;28;20032;-73
2023/09/01 00:31:09;;;;;;;4.68;3.15;;;;;;;9.63;100.00;98274.56;4172547;28;20056;-73
2023/09/01 00:33:09;;;;;;;4.10;2.42;;;;;;;9.52;100.00;98263.38;4171689;28;20061;-73
2023/09/01 00:35:10;;;;;;;3.47;2.63;;;;;;;9.48;100.00;98258.97;4172902;28;20382;-73
2023/09/01 00:37:10;;;;;;;3.45;2.25;;;;;;;9.43;100.00;98256.53;4172721;28;20128;-73
2023/09/01 00:39:10;;;;;;;6.95;2.70;;;;;;;9.36;100.00;98253.72;4172197;28;20049;-73
2023/09/01 00:41:11;;;;;;;5.65;3.10;;;;;;;9.25;100.00;98261.84;4172520;28;20107;-73
2023/09/01 00:43:11;;;;;;;6.25;3.33;;;;;;;9.24;100.00;98263.00;4171224;28;20041;-73
2023/09/01 00:45:12;;;;;;;3.45;2.45;;;;;;;9.22;100.00;98255.09;4173481;28;20142;-73
2023/09/01 00:47:13;;;;;;;3.40;2.80;;;;;;;9.25;100.00;98248.81;4172634;28;20057;-73
2023/09/01 00:49:17;;;;;;;6.57;2.78;;;;;;;9.27;100.00;98256.75;4172544;28;20076;-73
2023/09/01 00:51:18;;;;;;;4.13;3.08;;;;;;;9.35;100.00;98249.31;4172367;28;20426;-73
2023/09/01 00:53:19;;;;;;;5.75;2.70;;;;;;;9.33;100.00;98246.94;4171660;28;20270;-73
2023/09/01 00:55:19;;;;;;;4.80;2.95;;;;;;;9.37;100.00;98247.00;4172593;28;20139;-72
2023/09/01 00:57:20;;;;;;;4.57;2.55;;;;;;;9.36;100.00;98240.69;4172009;28;20049;-72
2023/09/01 00:59:21;;;;;;;3.50;2.63;;;;;;;9.33;100.00;98235.91;4172203;28;20566;-73
2023/09/01 01:01:22;;;;;;;5.40;2.80;;;;;;;9.22;100.00;98232.22;4171939;28;20056;-73
2023/09/01 01:03:22;;;;;;;3.60;2.67;;;;;;;9.14;100.00;98236.84;4171134;28;20037;-73
2023/09/01 01:05:31;;;;;;;4.90;2.58;;;;;;;9.09;100.00;98239.94;4172487;28;20080;-73
2023/09/01 01:07:40;;;;;;;4.60;2.90;;;;;;;9.05;100.00;98241.06;4172219;28;20529;-73
2023/09/01 01:09:53;;;;;;;4.38;2.83;;;;;;;8.97;100.00;98224.41;4171953;28;20440;-73
2023/09/01 01:12:05;;;;;;;6.40;3.08;;;;;;;8.98;100.00;98228.75;4172163;28;20049;-73
2023/09/01 01:14:15;;;;;;;5.65;2.92;;;;;;;8.97;100.00;98216.13;4170245;28;20500;-73
2023/09/01 01:16:17;;;;;;;5.68;3.10;;;;;;;8.95;100.00;98229.50;4171910;28;20040;-73
2023/09/01 01:18:18;;;;;;;7.10;2.63;;;;;;;9.00;100.00;98229.16;4171836;28;20120;-73
2023/09/01 01:20:34;;;;;;;5.32;3.20;;;;;;;8.96;100.00;98233.06;4171973;28;20071;-73
2023/09/01 01:22:48;;;;;;;7.25;2.97;;;;;;;8.98;100.00;98236.25;4171204;28;20087;-73
2023/09/01 01:24:49;;;;;;;6.15;2.58;;;;;;;8.98;100.00;98231.53;4171828;28;20049;-73
2023/09/01 01:26:49;;;;;;;4.72;3.05;;;;;;;9.01;100.00;98230.75;4171763;28;20447;-73
2023/09/01 01:28:50;;;;;;;3.90;2.70;;;;;;;9.08;100.00;98229.28;4172150;28;20049;-73
2023/09/01 01:30:51;;;;;;;7.60;3.08;;;;;;;9.08;100.00;98238.34;4171942;28;20049;-72
2023/09/01 01:32:51;;;;;;;4.38;2.95;;;;;;;9.04;100.00;98243.03;4171588;28;20485;-73
2023/09/01 01:35:10;;;;;;;5.75;2.75;;;;;;;8.99;100.00;98248.88;4174646;28;20057;-73
2023/09/01 01:37:22;;;;;;;5.15;2.88;;;;;;;8.96;100.00;98239.38;4175310;28;20056;-73
2023/09/01 01:39:26;;;;;;;3.85;2.75;;;;;;;8.91;100.00;98234.16;4175196;28;20037;-73
2023/09/01 01:41:43;;;;;;;4.25;2.35;;;;;;;8.90;100.00;98234.56;4174891;28;20477;-73
2023/09/01 01:43:45;;;;;;;5.57;2.30;;;;;;;8.86;100.00;98234.50;4174480;28;20053;-73
2023/09/01 01:45:46;;;;;;;5.32;3.15;;;;;;;8.86;100.00;98248.31;4175250;28;20099;-73
2023/09/01 01:47:51;;;;;;;5.50;3.10;;;;;;;8.79;100.00;98247.41;4175052;28;20283;-73
2023/09/01 01:49:51;;;;;;;5.70;2.95;;;;;;;8.75;100.00;98252.84;4175075;28;20210;-73
2023/09/01 01:51:52;;;;;;;4.38;2.97;;;;;;;8.69;100.00;98257.13;4174850;28;20131;-73
2023/09/01 01:53:52;;;;;;;4.35;2.95;;;;;;;8.60;100.00;98260.09;4173935;28;20049;-73
2023/09/01 01:55:53;;;;;;;5.72;3.45;;;;;;;8.66;100.00;98263.34;4174418;28;20551;-73
2023/09/01 01:57:53;;;;;;;4.50;3.38;;;;;;;8.66;100.00;98269.66;4175113;28;20063;-73
2023/09/01 01:59:53;;;;;;;6.97;3.80;;;;;;;8.67;100.00;98260.22;4175080;28;20076;-73
2023/09/01 02:01:53;;;;;;;4.72;3.25;;;;;;;8.75;100.00;98249.31;4174756;28;20091;-73
2023/09/01 02:03:54;;;;;;;5.32;3.53;;;;;;;8.79;100.00;98245.44;4174188;28;20575;-72
2023/09/01 02:05:54;;;;;;;7.15;3.83;;;;;;;8.78;100.00;98245.81;4174522;28;20044;-73
2023/09/01 02:07:54;;;;;;;5.35;3.40;;;;;;;8.81;100.00;98245.06;4174562;28;20067;-73
2023/09/01 02:09:55;;;;;;;5.45;3.63;;;;;;;8.87;100.00;98243.59;4174892;28;20040;-73
2023/09/01 02:11:55;;;;;;;4.20;3.47;;;;;;;8.88;100.00;98250.69;4174545;28;20096;-72
2023/09/01 02:13:56;;;;;;;5.20;3.42;;;;;;;8.90;100.00;98240.88;4174069;28;20425;-73
2023/09/01 02:15:57;;;;;;;4.63;3.67;;;;;;;8.89;100.00;98247.56;4174911;28;20542;-73
2023/09/01 02:18:00;;;;;;;6.18;3.50;;;;;;;8.91;100.00;98259.00;4174629;28;20084;-73
2023/09/01 02:20:00;;;;;;;7.35;3.83;;;;;;;8.92;100.00;98257.03;4174673;28;20041;-72
2023/09/01 02:22:01;;;;;;;4.80;3.40;;;;;;;8.95;100.00;98256.31;4174275;28;20137;-73
2023/09/01 02:24:01;;;;;;;4.88;3.63;;;;;;;8.95;100.00;98254.34;4173407;28;20375;-73
2023/09/01 02:26:04;;;;;;;5.50;3.83;;;;;;;8.99;100.00;98246.09;4174186;28;20056;-73
2023/09/01 02:28:05;;;;;;;7.40;3.97;;;;;;;9.02;100.00;98248.13;4174628;28;20040;-73
2023/09/01 02:30:06;;;;;;;5.05;3.92;;;;;;;8.98;100.00;98248.06;4174156;28;20036;-73
2023/09/01 02:32:08;;;;;;;6.07;3.53;;;;;;;9.03;100.00;98251.69;4174449;28;20149;-73
2023/09/01 02:34:09;;;;;;;6.15;3.75;;;;;;;9.04;100.00;98247.75;4161377;28;20060;-73
2023/09/01 02:36:21;;;;;;;5.30;3.47;;;;;;;9.08;100.00;98254.09;4173581;28;20136;-73
2023/09/01 02:38:21;;;;;;;4.70;3.55;;;;;;;9.06;100.00;98256.44;4174285;28;20053;-73
2023/09/01 02:40:24;;;;;;;8.50;4.15;;;;;;;9.07;100.00;98253.31;4173722;28;20170;-73
2023/09/01 02:42:24;;;;;;;6.45;3.80;;;;;;;9.09;100.00;98256.50;4173848;28;20436;-73
2023/09/01 02:44:25;;;;;;;7.28;3.63;;;;;;;9.10;100.00;98255.34;4173752;28;20045;-73
2023/09/01 02:46:25;;;;;;;7.40;3.72;;;;;;;9.08;100.00;98259.63;4173923;28;20037;-72
2023/09/01 02:48:26;;;;;;;7.40;3.95;;;;;;;9.08;100.00;98254.91;4174268;28;20045;-73
2023/09/01 02:50:26;;;;;;;7.90;3.53;;;;;;;9.14;100.00;98267.22;4172722;28;20318;-72
2023/09/01 02:52:26;;;;;;;7.13;3.60;;;;;;;9.15;100.00;98260.53;4173439;28;20203;-73
2023/09/01 02:54:28;;;;;;;5.13;3.28;;;;;;;9.16;100.00;98267.63;4173761;28;20651;-73
2023/09/01 02:56:28;;;;;;;6.15;3.90;;;;;;;9.19;100.00;98253.09;4173774;28;20052;-73
2023/09/01 02:58:29;;;;;;;5.15;3.53;;;;;;;9.21;100.00;98259.03;4174395;28;20041;-73
2023/09/01 03:00:29;;;;;;;8.60;3.92;;;;;;;9.26;100.00;98263.41;4173673;28;20057;-73
2023/09/01 03:02:30;;;;;;;5.20;3.60;;;;;;;9.27;100.00;98260.31;4173409;28;20728;-73
2023/09/01 03:04:30;;;;;;;6.68;4.25;;;;;;;9.32;100.00;98267.44;4174198;28;20102;-73
2023/09/01 03:06:30;;;;;;;5.68;3.50;;;;;;;9.33;100.00;98263.50;4173976;28;20063;-73
2023/09/01 03:08:32;;;;;;;5.68;4.00;;;;;;;9.35;100.00;98275.00;4173438;28;20088;-73
2023/09/01 03:10:32;;;;;;;6.43;4.07;;;;;;;9.35;100.00;98275.00;4173445;28;20687;-73
2023/09/01 03:12:33;;;;;;;7.25;3.90;;;;;;;9.35;100.00;98263.97;4173179;28;20040;-73
2023/09/01 03:14:33;;;;;;;8.50;3.90;;;;;;;9.36;100.00;98262.00;4173533;28;20044;-73
2023/09/01 03:16:34;;;;;;;6.90;4.13;;;;;;;9.34;100.00;98264.31;4173529;28;20131;-73
2023/09/01 03:18:34;;;;;;;6.95;4.30;;;;;;;9.32;100.00;98258.38;4173897;28;20045;-73
2023/09/01 03:20:35;;;;;;;6.03;4.00;;;;;;;9.33;100.00;98249.72;4173295;28;20081;-73
2023/09/01 03:22:36;;;;;;;5.75;4.10;;;;;;;9.36;100.00;98259.22;4172702;28;20566;-73
2023/09/01 03:24:36;;;;;;;7.50;4.20;;;;;;;9.34;100.00;98259.59;4174060;28;20534;-73
2023/09/01 03:26:36;;;;;;;5.97;3.80;;;;;;;9.34;100.00;98248.53;4173515;28;20049;-73
2023/09/01 03:28:39;;;;;;;8.43;4.10;;;;;;;9.34;100.00;98242.22;4173982;28;20049;-73
2023/09/01 03:30:39;;;;;;;9.13;4.15;;;;;;;9.32;100.00;98248.13;4173047;28;20068;-73
2023/09/01 03:32:39;;;;;;;9.95;4.85;;;;;;;9.31;100.00;98243.78;4173146;28;20389;-73
2023/09/01 03:34:40;;;;;;;6.15;4.25;;;;;;;9.31;100.00;98251.25;4173594;28;20044;-73
2023/09/01 03:36:40;;;;;;;6.88;4.40;;;;;;;9.30;100.00;98256.00;4172457;28;20055;-73
2023/09/01 03:38:41;;;;;;;7.80;4.30;;;;;;;9.31;100.00;98249.28;4174230;28;20114;-73
2023/09/01 03:40:41;;;;;;;6.63;4.15;;;;;;;9.32;100.00;98241.81;4172596;28;20056;-73
2023/09/01 03:42:41;;;;;;;5.68;4.15;;;;;;;9.29;100.00;98246.91;4172655;28;20392;-73
2023/09/01 03:44:42;;;;;;;9.55;3.92;;;;;;;9.28;100.00;98253.63;4173597;28;20316;-73
2023/09/01 03:46:42;;;;;;;5.80;4.03;;;;;;;9.31;100.00;98263.09;4172804;28;20389;-73
2023/09/01 03:48:42;;;;;;;5.78;4.05;;;;;;;9.30;100.00;98261.50;4173100;28;20094;-73
2023/09/01 03:50:43;;;;;;;4.88;4.05;;;;;;;9.29;100.00;98255.19;4172521;28;20499;-73
2023/09/01 03:52:43;;;;;;;6.20;4.30;;;;;;;9.27;100.00;98251.22;4172680;28;20060;-73
2023/09/01 03:54:43;;;;;;;10.43;5.50;;;;;;;9.26;100.00;98249.63;4173378;28;20151;-73
2023/09/01 03:56:44;;;;;;;6.60;4.13;;;;;;;9.29;100.00;98251.66;4172293;28;20079;-73
2023/09/01 03:58:44;;;;;;;8.45;4.10;;;;;;;9.30;100.00;98253.22;4172719;28;20071;-73
2023/09/01 04:00:44;;;;;;;7.68;4.70;;;;;;;9.31;100.00;98254.81;4172726;28;20068;-73
2023/09/01 04:02:45;;;;;;;5.50;4.30;;;;;;;9.33;100.00;98249.72;4172179;28;20060;-73
2023/09/01 04:04:45;;;;;;;4.80;3.67;;;;;;;9.33;100.00;98251.69;4173745;28;20400;-73
2023/09/01 04:06:45;;;;;;;7.07;4.35;;;;;;;9.35;100.00;98246.56;4172036;28;20648;-73
2023/09/01 04:08:46;;;;;;;9.23;3.97;;;;;;;9.42;100.00;98249.41;4173144;28;20544;-73
2023/09/01 04:10:46;;;;;;;8.43;4.50;;;;;;;9.42;100.00;98249.41;4173134;28;20974;-73
2023/09/01 04:12:47;;;;;;;11.20;4.30;;;;;;;9.41;100.00;98248.63;4172385;28;20045;-73
2023/09/01 04:14:47;;;;;;;6.25;3.90;;;;;;;9.41;100.00;98247.84;4172763;28;20107;-73
2023/09/01 04:16:47;;;;;;;7.55;4.10;;;;;;;9.42;100.00;98254.94;4172607;28;20037;-73
2023/09/01 04:18:48;;;;;;;6.72;3.97;;;;;;;9.42;100.00;98257.72;4172909;28;20053;-73
2023/09/01 04:20:53;;;;;;;5.63;3.90;;;;;;;9.42;100.00;98269.53;4172268;28;20056;-73
2023/09/01 04:22:54;;;;;;;9.40;4.07;;;;;;;9.44;100.00;98269.19;4172250;28;20056;-73
2023/09/01 04:24:54;;;;;;;7.90;4.35;;;;;;;9.45;100.00;98265.25;4172440;28;20044;-73
2023/09/01 04:26:54;;;;;;;6.20;3.90;;;;;;;9.48;100.00;98257.00;4172889;28;20060;-73
2023/09/01 04:28:55;;;;;;;5.32;3.92;;;;;;;9.53;100.00;98264.19;4172616;28;20124;-73
2023/09/01 04:30:59;;;;;;;6.57;4.07;;;;;;;9.57;100.00;98263.03;4172355;28;20106;-73
2023/09/01 04:32:59;;;;;;;12.40;5.05;;;;;;;9.58;100.00;98259.09;4171878;28;20061;-73
2023/09/01 04:35:00;;;;;;;6.57;4.05;;;;;;;9.65;100.00;98265.88;4172404;28;20264;-73
2023/09/01 04:37:00;;;;;;;11.65;4.82;;;;;;;9.67;100.00;98261.56;4171994;28;20123;-73
2023/09/01 04:39:04;;;;;;;6.35;4.13;;;;;;;9.68;100.00;98265.94;4172393;28;20041;-73
2023/09/01 04:41:04;;;;;;;7.00;4.60;;;;;;;9.71;100.00;98267.94;4172433;28;20300;-73
2023/09/01 04:43:05;;;;;;;8.30;3.90;;;;;;;9.71;100.00;98258.84;4172156;28;20374;-73
2023/09/01 04:45:06;;;;;;;8.82;4.03;;;;;;;9.74;100.00;98260.84;4172167;28;20041;-73
2023/09/01 04:47:06;;;;;;;7.55;3.78;;;;;;;9.76;100.00;98251.03;4171992;28;20095;-73
2023/09/01 04:49:06;;;;;;;6.10;3.83;;;;;;;9.82;100.00;98252.25;4172411;28;20051;-73
2023/09/01 04:51:07;;;;;;;9.35;4.57;;;;;;;9.88;100.00;98252.72;4172065;28;20527;-73
2023/09/01 04:53:07;;;;;;;7.88;3.85;;;;;;;9.89;100.00;98240.50;4171782;28;20552;-73
2023/09/01 04:55:08;;;;;;;6.35;4.15;;;;;;;9.93;100.00;98246.03;4172370;28;20040;-73
2023/09/01 04:57:08;;;;;;;9.82;4.45;;;;;;;9.94;100.00;98245.69;4136316;28;20361;-73
2023/09/01 04:59:09;;;;;;;7.05;4.47;;;;;;;9.98;100.00;98254.00;4173172;28;20526;-73
2023/09/01 05:01:09;;;;;;;6.68;3.95;;;;;;;10.01;100.00;98251.28;4172268;28;20505;-73
2023/09/01 05:03:10;;;;;;;5.13;3.67;;;;;;;10.04;100.00;98253.28;4171495;28;20490;-73
2023/09/01 05:05:11;;;;;;;8.35;4.30;;;;;;;10.11;100.00;98245.06;4172147;28;20761;-73
2023/09/01 05:07:12;;;;;;;5.25;3.95;;;;;;;10.18;100.00;98243.53;4172205;28;20045;-73
2023/09/01 05:09:12;;;;;;;5.15;4.05;;;;;;;10.24;100.00;98253.09;4173929;28;20516;-73
2023/09/01 05:11:13;;;;;;;8.02;4.30;;;;;;;10.26;100.00;98246.03;4175258;28;20045;-73
2023/09/01 05:13:13;;;;;;;9.10;4.90;;;;;;;10.29;100.00;98247.22;4174859;28;20555;-73
2023/09/01 05:15:13;;;;;;;7.85;4.18;;;;;;;10.32;100.00;98255.53;4175580;28;20045;-72
2023/09/01 05:17:14;;;;;;;4.68;3.80;;;;;;;10.34;100.00;98253.22;4175542;28;20049;-73
2023/09/01 05:19:15;;;;;;;8.63;3.97;;;;;;;10.38;100.00;98261.53;4175138;28;20069;-73
2023/09/01 05:21:15;;;;;;;8.68;4.57;;;;;;;10.44;100.00;98256.44;4175310;28;20041;-73
2023/09/01 05:23:15;;;;;;;7.35;4.15;;;;;;;10.48;100.00;98258.06;4174951;28;20045;-73
2023/09/01 05:25:16;;;;;;;8.48;4.85;;;;;;;10.49;100.00;98265.16;4175261;28;20122;-73
2023/09/01 05:27:19;;;;;;;6.45;4.78;;;;;;;10.50;100.00;98272.28;4175362;28;20040;-73
2023/09/01 05:29:20;;;;;;;5.18;4.43;;;;;;;10.52;100.00;98269.97;4175033;28;20091;-73
2023/09/01 05:31:20;;;;;;;6.55;4.55;;;;;;;10.54;100.00;98278.66;4174920;28;20065;-73
2023/09/01 05:33:20;;;;;;;5.93;3.83;;;;;;;10.51;100.00;98273.06;4173469;28;20055;-73
2023/09/01 05:35:21;;;;;;;5.60;4.38;;;;;;;10.51;100.00;98273.91;4173782;28;20071;-73
2023/09/01 05:37:21;;;;;;;7.50;4.60;;;;;;;10.49;100.00;98270.69;4161784;28;20049;-73
2023/09/01 05:39:21;;;;;;;7.00;4.55;;;;;;;10.51;100.00;98282.19;4173909;28;20077;-73
2023/09/01 05:41:22;;;;;;;9.32;4.60;;;;;;;10.48;100.00;98266.34;4174101;28;20091;-73
2023/09/01 05:43:23;;;;;;;6.38;4.43;;;;;;;10.52;100.00;98267.19;4174036;28;20057;-73
2023/09/01 05:45:24;;;;;;;11.68;4.85;;;;;;;10.55;100.00;98271.94;4175549;28;20067;-73
2023/09/01 05:47:24;;;;;;;7.10;4.47;;;;;;;10.58;100.00;98268.41;4174476;28;20076;-73
2023/09/01 05:49:25;;;;;;;6.88;4.50;;;;;;;10.62;100.00;98272.00;4159934;28;20046;-73
2023/09/01 05:51:25;;;;;;;6.22;4.68;;;;;;;10.63;100.00;98270.03;4173166;28;20049;-73
2023/09/01 05:53:26;;;;;;;6.53;4.10;;;;;;;10.66;100.00;98272.03;4173613;28;20346;-73
2023/09/01 05:55:29;;;;;;;7.18;4.35;;;;;;;10.70;100.00;98270.09;4174579;28;20037;-73
2023/09/01 05:57:29;;;;;;;9.68;4.85;;;;;;;10.73;100.00;98272.09;4162595;28;20513;-73
2023/09/01 05:59:30;;;;;;;9.55;5.03;;;;;;;10.76;100.00;98270.50;4174625;28;20048;-73
2023/09/01 06:01:35;;;;;;;6.20;5.05;;;;;;;10.77;100.00;98278.44;4174483;28;20396;-73
2023/09/01 06:03:35;;;;;;;7.82;5.60;;;;;;;10.79;100.00;98281.63;4174002;28;20472;-73
2023/09/01 06:05:36;;;;;;;8.45;5.28;;;;;;;10.83;100.00;98282.44;4175097;28;20894;-73
2023/09/01 06:07:37;;;;;;;9.23;5.03;;;;;;;10.90;100.00;98281.69;4174484;28;20464;-73
2023/09/01 06:09:37;;;;;;;9.25;5.30;;;;;;;10.93;100.00;98278.97;4174762;28;20037;-73
2023/09/01 06:11:39;;;;;;;10.45;6.07;;;;;;;10.96;100.00;98285.69;4174802;28;20045;-73
2023/09/01 06:13:39;;;;;;;9.52;6.10;;;;;;;10.98;100.00;98280.56;4174128;28;20048;-73
2023/09/01 06:15:39;;;;;;;11.25;5.90;;;;;;;10.99;100.00;98284.91;4174813;28;20038;-73
2023/09/01 06:17:40;;;;;;;9.77;5.38;;;;;;;11.03;100.00;98285.75;4174158;28;20162;-73
2023/09/01 06:19:40;;;;;;;7.93;5.30;;;;;;;11.07;100.00;98285.75;4174785;28;20294;-73
2023/09/01 06:21:40;;;;;;;7.35;5.28;;;;;;;11.14;100.00;98288.56;4173546;28;20132;-73
2023/09/01 06:23:44;;;;;;;10.25;6.43;;;;;;;11.18;100.00;98289.41;4173660;28;20141;-73
2023/09/01 06:25:45;;;;;;;7.65;5.78;;;;;;;11.22;100.00;98288.22;4174494;28;20470;-73
2023/09/01 06:27:46;;;;;;;9.75;5.88;;;;;;;11.28;100.00;98291.44;4174883;28;20040;-73
2023/09/01 06:29:47;;;;;;;9.52;5.53;;;;;;;11.35;100.00;98293.47;4174233;28;20060;-73
2023/09/01 06:31:47;;;;;;;9.93;5.75;;;;;;;11.41;100.00;98291.88;4174140;28;20544;-73
2023/09/01 06:33:48;;;;;;;8.30;5.72;;;;;;;11.49;100.00;98293.50;4174197;28;20057;-73
2023/09/01 06:35:49;;;;;;;8.73;5.32;;;;;;;11.57;100.00;98294.34;4174263;28;20045;-73
2023/09/01 06:37:49;;;;;;;8.55;5.82;;;;;;;11.63;100.00;98296.34;4165834;28;20053;-73
2023/09/01 06:39:49;;;;;;;9.38;6.32;;;;;;;11.71;100.00;98297.97;4173968;28;20056;-73
2023/09/01 06:41:50;;;;;;;7.38;5.72;;;;;;;11.78;100.00;98303.53;4174560;28;20053;-73
2023/09/01 06:43:50;;;;;;;9.57;6.20;;;;;;;11.85;100.00;98300.03;4173763;28;20045;-73
2023/09/01 06:45:50;;;;;;;7.40;6.00;;;;;;;11.92;100.00;98302.06;4173988;28;20164;-73
2023/09/01 06:47:57;;;;;;;9.50;6.13;;;;;;;12.01;100.00;98299.69;4174396;28;20076;-73
2023/09/01 06:49:57;;;;;;;9.70;6.10;;;;;;;12.08;100.00;98302.47;4174742;28;20098;-73
2023/09/01 06:51:58;;;;;;;7.03;5.85;;;;;;;12.18;100.00;98290.63;4173944;28;20377;-73
2023/09/01 06:53:59;;;;;;;8.55;6.32;;;;;;;12.29;100.00;98298.97;4173354;28;20072;-73
2023/09/01 06:55:59;;;;;;;8.48;5.97;;;;;;;12.34;100.00;98296.59;4174631;28;20277;-73
2023/09/01 06:57:59;;;;;;;7.10;5.18;;;;;;;12.47;100.00;98291.44;4173456;28;20095;-73
2023/09/01 07:00:00;;;;;;;9.10;5.28;;;;;;;12.57;100.00;98298.19;4173847;28;20049;-73
2023/09/01 07:02:00;;;;;;;7.22;4.82;;;;;;;12.66;100.00;98290.28;4173828;28;20057;-73
2023/09/01 07:04:03;;;;;;;8.25;5.00;;;;;;;12.75;100.00;98284.34;4172141;28;20049;-73
2023/09/01 07:06:04;;;;;;;8.98;5.13;;;;;;;12.85;100.00;98289.88;4173421;28;20079;-73
2023/09/01 07:08:12;;;;;;;8.07;5.75;;;;;;;12.94;100.00;98287.50;4173756;28;20036;-73
2023/09/01 07:10:12;;;;;;;7.15;5.45;;;;;;;13.01;100.00;98291.47;4173830;28;20457;-73
2023/09/01 07:12:12;;;;;;;8.98;5.63;;;;;;;13.06;100.00;98283.50;4173779;28;20032;-73
2023/09/01 07:14:13;;;;;;;11.48;5.68;;;;;;;13.11;100.00;98287.88;4173036;28;20084;-73
2023/09/01 07:16:13;;;;;;;7.60;5.75;;;;;;;13.19;100.00;98286.66;4173945;28;20037;-73
2023/09/01 07:18:14;;;;;;;11.70;5.93;;;;;;;13.24;100.00;98279.91;4173353;28;20064;-73
2023/09/01 07:20:14;;;;;;;7.13;4.70;;;;;;;13.27;100.00;98285.47;4173935;28;20037;-73
2023/09/01 07:22:14;;;;;;;7.15;5.53;;;;;;;13.31;100.00;98283.47;4173564;28;20388;-73
2023/09/01 07:24:15;;;;;;;8.93;5.45;;;;;;;13.34;100.00;98281.91;4172921;28;20036;-73
2023/09/01 07:26:15;;;;;;;11.75;7.35;;;;;;;13.39;100.00;98284.25;4173443;28;20086;-73
2023/09/01 07:28:15;;;;;;;11.07;6.40;;;;;;;13.46;100.00;98287.00;4173725;28;20063;-73
2023/09/01 07:30:16;;;;;;;9.27;5.63;;;;;;;13.47;100.00;98281.03;4173196;28;20028;-73
2023/09/01 07:32:17;;;;;;;8.73;5.72;;;;;;;13.53;100.00;98280.66;4173748;28;20043;-73
2023/09/01 07:34:17;;;;;;;11.13;6.25;;;;;;;13.57;100.00;98278.63;4173182;28;20025;-73
2023/09/01 07:36:19;;;;;;;7.60;5.47;;;;;;;13.65;100.00;98280.19;4173490;28;20033;-73
2023/09/01 07:38:20;;;;;;;6.53;4.28;;;;;;;13.71;100.00;98278.56;4173344;28;20033;-73
2023/09/01 07:40:20;;;;;;;7.82;4.97;;;;;;;13.79;100.00;98285.69;4173667;28;20584;-73
2023/09/01 07:42:22;;;;;;;8.13;4.47;;;;;;;13.88;100.00;98288.81;4173153;28;20448;-73
2023/09/01 07:44:22;;;;;;;5.05;4.00;;;;;;;13.95;100.00;98288.78;4172608;28;20477;-73
2023/09/01 07:46:23;;;;;;;6.45;3.80;;;;;;;14.05;100.00;98290.72;4173607;28;20421;-73
2023/09/01 07:48:23;;;;;;;3.70;3.30;;;;;;;14.11;100.00;98288.31;4173351;28;20044;-73
2023/09/01 07:50:24;;;;;;;4.93;3.95;;;;;;;14.16;100.00;98279.56;4173197;28;20106;-73
2023/09/01 07:52:25;;;;;;;4.68;3.45;;;;;;;14.21;100.00;98290.25;4172758;28;20049;-73
2023/09/01 07:54:25;;;;;;;6.35;3.67;;;;;;;14.23;100.00;98295.38;4173105;28;20041;-73
2023/09/01 07:56:26;;;;;;;4.88;3.55;;;;;;;14.29;100.00;98285.44;4172720;28;20136;-73
2023/09/01 07:58:26;;;;;;;6.80;3.50;;;;;;;14.37;100.00;98281.41;4172932;28;20041;-73
2023/09/01 08:00:26;;;;;;;4.20;3.03;;;;;;;14.51;100.00;98289.69;4173481;28;20486;-73
2023/09/01 08:02:27;;;;;;;6.18;3.15;;;;;;;14.64;100.00;98292.75;4172682;28;20409;-73
2023/09/01 08:04:27;;;;;;;7.93;3.38;;;;;;;14.71;100.00;98287.13;4172842;28;20047;-73
2023/09/01 08:06:31;;;;;;;3.65;2.63;;;;;;;14.77;100.00;98287.50;4173363;28;20040;-73
2023/09/01 08:08:31;;;;;;;4.38;2.40;;;;;;;14.86;100.00;98287.81;4173021;28;20037;-73
2023/09/01 08:10:32;;;;;;;4.55;3.10;;;;;;;14.97;100.00;98302.44;4172851;28;20266;-73
2023/09/01 08:12:32;;;;;;;3.55;2.40;;;;;;;15.07;100.00;98286.84;4172277;28;20071;-73
2023/09/01 08:14:32;;;;;;;2.67;2.40;;;;;;;15.15;100.00;98300.28;4172748;28;20055;-73
2023/09/01 08:16:33;;;;;;;5.15;1.90;;;;;;;15.20;100.00;98287.88;4172877;28;20155;-73
2023/09/01 08:18:33;;;;;;;2.00;1.75;;;;;;;15.29;100.00;98295.75;4172753;28;20026;-73
2023/09/01 08:20:33;;;;;;;2.25;1.50;;;;;;;15.43;100.00;98301.19;4172913;28;20049;-73
2023/09/01 08:22:34;;;;;;;1.92;1.13;;;;;;;15.52;100.00;98300.69;4172525;28;20232;-73
2023/09/01 08:24:34;;;;;;;1.52;1.08;;;;;;;15.59;100.00;98304.19;4172552;28;20505;-73
2023/09/01 08:26:35;;;;;;;3.17;1.55;;;;;;;15.67;100.00;98294.59;4172561;28;20045;-73
2023/09/01 08:28:36;;;;;;;1.75;1.15;;;;;;;15.77;100.00;98300.44;4173028;28;20052;-73
2023/09/01 08:30:36;;;;;;;0.80;0.80;;;;;;;15.86;100.00;98307.09;4172403;28;20037;-73
2023/09/01 08:32:41;;;;;;;0.88;0.80;;;;;;;15.93;100.00;98304.22;4172060;28;20335;-73
2023/09/01 08:34:41;;;;;;;1.05;0.80;;;;;;;15.97;100.00;98304.97;4172618;28;20049;-73
2023/09/01 08:36:43;;;;;;;1.00;0.90;;;;;;;16.00;100.00;98300.56;4172674;28;20040;-73
2023/09/01 08:38:43;;;;;;;2.43;0.80;;;;;;;16.08;100.00;98304.03;4172650;28;20072;-73
2023/09/01 08:40:43;;;;;;;1.02;0.82;;;;;;;16.09;100.00;98319.56;4172291;28;20767;-73
2023/09/01 08:42:47;;;;;;;2.42;0.90;;;;;;;16.12;100.00;98311.13;4171707;28;20041;-74
2023/09/01 08:44:48;;;;;;;0.75;0.70;;;;;;;16.17;100.00;98307.91;4172251;28;20045;-73
2023/09/01 08:46:53;;;;;;;1.65;0.90;;;;;;;16.20;100.00;98298.66;4172298;28;20040;-73
2023/09/01 08:48:54;;;;;;;0.88;0.73;;;;;;;16.21;100.00;98288.28;4172668;28;20110;-73
2023/09/01 08:50:56;;;;;;;0.90;0.80;;;;;;;16.20;100.00;98295.88;4172124;28;20444;-73
2023/09/01 08:52:59;;;;;;;0.70;0.70;;;;;;;16.21;100.00;98294.66;4172331;28;20076;-73
2023/09/01 08:54:59;;;;;;;0.65;0.65;;;;;;;16.26;100.00;98285.03;4172751;28;20094;-73
2023/09/01 08:57:00;;;;;;;1.20;0.82;;;;;;;16.31;100.00;98290.16;4172250;28;20106;-74
2023/09/01 08:59:00;;;;;;;0.80;0.70;;;;;;;16.38;100.00;98289.25;4171979;28;20223;-74
2023/09/01 09:01:00;;;;;;;0.93;0.80;;;;;;;16.50;100.00;98286.69;4173144;28;20139;-73
2023/09/01 09:03:01;;;;;;;1.42;0.88;;;;;;;16.57;100.00;98296.97;4171536;28;20068;-73
2023/09/01 09:05:03;;;;;;;0.73;0.68;;;;;;;16.63;100.00;98294.44;4172277;28;20087;-74
2023/09/01 09:07:17;;;;;;;0.80;0.80;;;;;;;16.69;100.00;98295.59;4172635;28;20386;-74
2023/09/01 09:09:18;;;;;;;1.02;0.88;;;;;;;16.69;100.00;98301.97;4172237;28;20460;-73
2023/09/01 09:11:19;;;;;;;5.72;0.80;;;;;;;16.70;100.00;98299.97;4171866;28;20045;-74
2023/09/01 09:13:25;;;;;;;0.70;0.70;;;;;;;16.67;100.00;98307.16;4171953;28;20060;-74
2023/09/01 09:15:25;;;;;;;3.63;0.70;;;;;;;16.71;100.00;98295.94;4170997;28;20458;-74
2023/09/01 09:17:45;;;;;;;0.70;0.70;;;;;;;16.79;100.00;98298.19;4171781;28;20132;-73
2023/09/01 09:19:54;;;;;;;1.90;0.80;;;;;;;16.90;100.00;98298.06;4172346;28;20056;-73
2023/09/01 09:22:08;;;;;;;1.30;0.90;;;;;;;16.98;100.00;98302.31;4172483;28;20542;-74
2023/09/01 09:24:08;;;;;;;1.00;0.70;;;;;;;17.00;100.00;98307.47;4171517;28;20076;-74
2023/09/01 09:26:08;;;;;;;0.77;0.77;;;;;;;17.02;100.00;98300.22;4171923;28;20578;-74
2023/09/01 09:28:13;;;;;;;0.70;0.70;;;;;;;17.08;100.00;98295.75;4172826;28;20033;-74